Strona główna
METAR-TAF:

METAR-TAF

Lotnisko :

Port lotniczy Tahoua

Tahoua, Niger

Szerokość geograficzna: 14-54N, Długość geograficzna: 005-15E, wysokość: 386 m

Aktualna obserwacja pogody

Raport powstał 1 godzina i 49 minut temu, godzina 18:00 UTC
Wiatr 12 kt od południowo-południowy zachód
Temperatura 29°C
Wilgotność 66%
Ciśnienie 1011 hPa
Widzialność 10 km lub więcej
Mało chmury na wysokości 3000 ft

METAR: DRRT 201800Z 20012KT 9999 FEW030 29/22 Q1011

czas: 20:49 (19:49 UTC)


TAF: brakujący

Obserwacja i prognoza pogody dla ponad 4000 lotnisk (raport METAR i TAF).

Dostępne stacje oznaczono żółtymi i czerwonymi punktami na mapie.

Najedź kursorem aby zobaczyć nazwę stacji.

Kliknij aby zobaczyć obserwacje i prognozy pogody.

Aby zmienić mapę: kliknij na zielony przycisk z czarnym krzyżykiem, aby powiększyć; na zielony przycisk z myślnikiem, aby pomniejszyć; na zielone strzałki, aby przejść do map sąsiednich.


METAR-TAF: